Puerto Banus, Marbella

>

This is an optional block (switch it off / on) in the settings - file ($SITE['banners'] = false;)

You can display ads, any other important text or photo’s using text / html or PHP code.

You can place one or more at the top and or bottom and it can all be different for content / size .



Meteosat more information blitzortung!


Radar lluvias  rain snow radar


Visita nuestra red de sitios de meteo:

Documentation for the template used

MeteoibericaRed estaciones Meteorologicas

MeteoclimaticRed estaciones Meteorologicas



Viento Desde: 20-04-2018 10:00 Hasta: 21-04-2018 04:59 Advertencias para: Viento Nivel: Amarillo info button

Pagina Historial Weather Underground texto

Diario Resumen January 03, 2018 Unidades:  Tanto    impérial   Métrico
« Anterior Dia
Siguiente Dia »
Diario Semana Mensual Anual Personalizada
  Maxima: Minima: Media:
Temperatura: TemperatureC °F /  -17.8 °C 12.9 °F /  -10.6 °C 15.4 °F /  -9.2 °C
Punto de rocío: DewpointC °F /  -17.8 °C 8.7 °F /  -12.9 °C 11.5 °F /  -11.4 °C
Humedad: Humidity % 64 % 77 %
Velocidad del Viento: WindSpeedKMH mph /  0 km/h - 4.3 mph /  6.9 km/h
Ráfagas de viento: WindSpeedGustKMH mph /  0 km/h - -
Viento:- - WSW
Pression baro: PressurehPa in /  0 hPa 1028.0 in /  34808.1 hPa -
Précipitaciones: 0.0 in /  0 mm    
Historical Graphs
 
 
Datos de tabla para January 03, 2018
Tiempo Temperatura Punto de rocío Pression baro Viento Velocidad del Viento Ráfagas de viento Humedad Las precipitaciones Rate ( Hora )
TemperatureC °F /  -17.8 °C DewpointC °F /  -17.8 °C PressurehPa in /  0 hPa Calm     Humidity % HourlyPrecipMM in /  0 mm
00:01 16.1 °F /  -8.8 °C 9.2 °F /  -12.7 °C 1030.4 in /  34889.3 hPa North 5.6 mph /  9 km/h 5.6 mph /  9 km/h 64 % 0.0 in /  0 mm
00:02 16.1 °F /  -8.8 °C 9.2 °F /  -12.7 °C 1030.4 in /  34889.3 hPa North 5.6 mph /  9 km/h 5.6 mph /  9 km/h 64 % 0.0 in /  0 mm
00:08 16.1 °F /  -8.8 °C 9.3 °F /  -12.6 °C 1030.4 in /  34889.3 hPa North 4.8 mph /  7.7 km/h 4.8 mph /  7.7 km/h 64 % 0.0 in /  0 mm
00:10 16.1 °F /  -8.8 °C 9.3 °F /  -12.6 °C 1030.4 in /  34889.3 hPa North 5.6 mph /  9 km/h 5.6 mph /  9 km/h 64 % 0.0 in /  0 mm
00:13 16.2 °F /  -8.8 °C 9.3 °F /  -12.6 °C 1030.4 in /  34889.3 hPa NNW 5.6 mph /  9 km/h 5.6 mph /  9 km/h 64 % 0.0 in /  0 mm
00:18 16.3 °F /  -8.7 °C 9.4 °F /  -12.6 °C 1030.4 in /  34889.3 hPa Calm     64 % 0.0 in /  0 mm
00:19 16.3 °F /  -8.7 °C 9.4 °F /  -12.6 °C 1030.4 in /  34889.3 hPa Calm     64 % 0.0 in /  0 mm
00:20 16.3 °F /  -8.7 °C 9.4 °F /  -12.6 °C 1030.4 in /  34889.3 hPa Calm     64 % 0.0 in /  0 mm
00:24 15.9 °F /  -8.9 °C 9.1 °F /  -12.7 °C 1030.4 in /  34889.3 hPa NNW 8.0 mph /  12.9 km/h 8.0 mph /  12.9 km/h 64 % 0.0 in /  0 mm
00:29 15.3 °F /  -9.3 °C 9.0 °F /  -12.8 °C 1030.4 in /  34889.3 hPa North 6.4 mph /  10.3 km/h 6.4 mph /  10.3 km/h 66 % 0.0 in /  0 mm
00:31 15.3 °F /  -9.3 °C 8.9 °F /  -12.8 °C 1030.4 in /  34889.3 hPa North 5.6 mph /  9 km/h 5.6 mph /  9 km/h 66 % 0.0 in /  0 mm
00:32 15.2 °F /  -9.3 °C 8.8 °F /  -12.9 °C 1030.4 in /  34889.3 hPa NNW 5.6 mph /  9 km/h 5.6 mph /  9 km/h 66 % 0.0 in /  0 mm
00:36 15.1 °F /  -9.4 °C 8.7 °F /  -12.9 °C 1030.4 in /  34889.3 hPa North 6.4 mph /  10.3 km/h 6.4 mph /  10.3 km/h 66 % 0.0 in /  0 mm
00:41 14.9 °F /  -9.5 °C 8.9 °F /  -12.8 °C 1030.4 in /  34889.3 hPa NNW 6.4 mph /  10.3 km/h 6.4 mph /  10.3 km/h 67 % 0.0 in /  0 mm
00:46 14.9 °F /  -9.5 °C 8.8 °F /  -12.9 °C 1030.0 in /  34875.8 hPa North 5.6 mph /  9 km/h 5.6 mph /  9 km/h 67 % 0.0 in /  0 mm
00:47 14.9 °F /  -9.5 °C 8.9 °F /  -12.8 °C 1030.0 in /  34875.8 hPa North 5.6 mph /  9 km/h 5.6 mph /  9 km/h 67 % 0.0 in /  0 mm
00:52 15.1 °F /  -9.4 °C 8.9 °F /  -12.8 °C 1030.4 in /  34889.3 hPa North 9.3 mph /  15 km/h 9.3 mph /  15 km/h 67 % 0.0 in /  0 mm
00:53 15.1 °F /  -9.4 °C 8.9 °F /  -12.8 °C 1030.4 in /  34889.3 hPa North 9.3 mph /  15 km/h 9.3 mph /  15 km/h 67 % 0.0 in /  0 mm
00:55 14.9 °F /  -9.5 °C 8.9 °F /  -12.8 °C 1030.0 in /  34875.8 hPa North 9.7 mph /  15.6 km/h 9.7 mph /  15.6 km/h 67 % 0.0 in /  0 mm
00:58 14.8 °F /  -9.6 °C 8.7 °F /  -12.9 °C 1030.0 in /  34875.8 hPa North 7.4 mph /  11.9 km/h 7.4 mph /  11.9 km/h 67 % 0.0 in /  0 mm
01:03 14.7 °F /  -9.6 °C 8.9 °F /  -12.8 °C 1030.0 in /  34875.8 hPa North 11.3 mph /  18.2 km/h 11.3 mph /  18.2 km/h 68 % 0.0 in /  0 mm
01:05 14.7 °F /  -9.6 °C 8.9 °F /  -12.8 °C 1030.0 in /  34875.8 hPa North 9.3 mph /  15 km/h 9.3 mph /  15 km/h 68 % 0.0 in /  0 mm
01:08 14.7 °F /  -9.6 °C 8.8 °F /  -12.9 °C 1030.0 in /  34875.8 hPa North 12.9 mph /  20.8 km/h 12.9 mph /  20.8 km/h 68 % 0.0 in /  0 mm
01:13 14.5 °F /  -9.7 °C 8.7 °F /  -12.9 °C 1030.0 in /  34875.8 hPa North 5.6 mph /  9 km/h 5.6 mph /  9 km/h 68 % 0.0 in /  0 mm
01:17 14.5 °F /  -9.7 °C 8.9 °F /  -12.8 °C 1030.0 in /  34875.8 hPa Calm     69 % 0.0 in /  0 mm
01:19 14.4 °F /  -9.8 °C 8.8 °F /  -12.9 °C 1030.0 in /  34875.8 hPa Calm     69 % 0.0 in /  0 mm
01:22 14.3 °F /  -9.8 °C 8.7 °F /  -12.9 °C 1030.0 in /  34875.8 hPa NNE 5.6 mph /  9 km/h 5.6 mph /  9 km/h 69 % 0.0 in /  0 mm
01:27 14.1 °F /  -9.9 °C 8.7 °F /  -12.9 °C 1030.0 in /  34875.8 hPa North 7.4 mph /  11.9 km/h 7.4 mph /  11.9 km/h 70 % 0.0 in /  0 mm
01:32 14.1 °F /  -9.9 °C 8.9 °F /  -12.8 °C 1030.0 in /  34875.8 hPa Calm     71 % 0.0 in /  0 mm
01:35 14.2 °F /  -9.9 °C 9.1 °F /  -12.7 °C 1030.0 in /  34875.8 hPa Calm     71 % 0.0 in /  0 mm
01:36 14.2 °F /  -9.9 °C 9.1 °F /  -12.7 °C 1030.0 in /  34875.8 hPa Calm     71 % 0.0 in /  0 mm
01:40 14.4 °F /  -9.8 °C 9.2 °F /  -12.7 °C 1030.0 in /  34875.8 hPa Calm     71 % 0.0 in /  0 mm
01:41 14.4 °F /  -9.8 °C 9.2 °F /  -12.7 °C 1030.0 in /  34875.8 hPa Calm     71 % 0.0 in /  0 mm
01:46 15.0 °F /  -9.4 °C 9.6 °F /  -12.4 °C 1030.0 in /  34875.8 hPa Calm     70 % 0.0 in /  0 mm
01:48 15.1 °F /  -9.4 °C 9.6 °F /  -12.4 °C 1030.0 in /  34875.8 hPa Calm     70 % 0.0 in /  0 mm
01:50 15.2 °F /  -9.3 °C 9.5 °F /  -12.5 °C 1030.0 in /  34875.8 hPa Calm     69 % 0.0 in /  0 mm
01:53 15.2 °F /  -9.3 °C 9.5 °F /  -12.5 °C 1030.0 in /  34875.8 hPa Calm     69 % 0.0 in /  0 mm
01:57 15.1 °F /  -9.4 °C 9.2 °F /  -12.7 °C 1030.0 in /  34875.8 hPa Calm     68 % 0.0 in /  0 mm
01:58 15.1 °F /  -9.4 °C 9.2 °F /  -12.7 °C 1030.0 in /  34875.8 hPa NNW 4.8 mph /  7.7 km/h 4.8 mph /  7.7 km/h 68 % 0.0 in /  0 mm
02:05 15.1 °F /  -9.4 °C 9.4 °F /  -12.6 °C 1030.0 in /  34875.8 hPa NW 7.4 mph /  11.9 km/h 7.4 mph /  11.9 km/h 69 % 0.0 in /  0 mm
02:11 15.3 °F /  -9.3 °C 9.7 °F /  -12.4 °C 1030.0 in /  34875.8 hPa NNW 6.4 mph /  10.3 km/h 6.4 mph /  10.3 km/h 69 % 0.0 in /  0 mm
02:14 15.6 °F /  -9.1 °C 9.7 °F /  -12.4 °C 1030.0 in /  34875.8 hPa NW 5.6 mph /  9 km/h 5.6 mph /  9 km/h 68 % 0.0 in /  0 mm
02:16 15.8 °F /  -9 °C 9.9 °F /  -12.3 °C 1030.0 in /  34875.8 hPa NW 5.6 mph /  9 km/h 5.6 mph /  9 km/h 68 % 0.0 in /  0 mm
02:21 16.1 °F /  -8.8 °C 9.9 °F /  -12.3 °C 1030.0 in /  34875.8 hPa NNW 3.7 mph /  6 km/h 3.7 mph /  6 km/h 67 % 0.0 in /  0 mm
02:22 16.1 °F /  -8.8 °C 9.9 °F /  -12.3 °C 1030.0 in /  34875.8 hPa NNW 1.9 mph /  3.1 km/h   67 % 0.0 in /  0 mm
02:23 16.1 °F /  -8.8 °C 9.9 °F /  -12.3 °C 1030.0 in /  34875.8 hPa Calm     67 % 0.0 in /  0 mm
02:28 16.2 °F /  -8.8 °C 10.1 °F /  -12.2 °C 1029.7 in /  34865.6 hPa NW 5.6 mph /  9 km/h 5.6 mph /  9 km/h 67 % 0.0 in /  0 mm
02:31 16.1 °F /  -8.8 °C 10.2 °F /  -12.1 °C 1029.7 in /  34865.6 hPa West 5.6 mph /  9 km/h 5.6 mph /  9 km/h 68 % 0.0 in /  0 mm
02:34 15.9 °F /  -8.9 °C 10.3 °F /  -12.1 °C 1029.7 in /  34865.6 hPa West 6.4 mph /  10.3 km/h 6.4 mph /  10.3 km/h 69 % 0.0 in /  0 mm
02:39 15.8 °F /  -9 °C 10.1 °F /  -12.2 °C 1029.7 in /  34865.6 hPa West 5.6 mph /  9 km/h 5.6 mph /  9 km/h 69 % 0.0 in /  0 mm
02:40 15.8 °F /  -9 °C 10.1 °F /  -12.2 °C 1029.7 in /  34865.6 hPa West 4.8 mph /  7.7 km/h 4.8 mph /  7.7 km/h 69 % 0.0 in /  0 mm
02:45 15.7 °F /  -9.1 °C 10.2 °F /  -12.1 °C 1029.7 in /  34865.6 hPa WNW 6.4 mph /  10.3 km/h 6.4 mph /  10.3 km/h 70 % 0.0 in /  0 mm
02:46 15.6 °F /  -9.1 °C 10.2 °F /  -12.1 °C 1030.0 in /  34875.8 hPa WNW 5.6 mph /  9 km/h 5.6 mph /  9 km/h 70 % 0.0 in /  0 mm
02:47 15.6 °F /  -9.1 °C 10.1 °F /  -12.2 °C 1029.7 in /  34865.6 hPa West 5.6 mph /  9 km/h 5.6 mph /  9 km/h 70 % 0.0 in /  0 mm
02:52 15.5 °F /  -9.2 °C 10.3 °F /  -12.1 °C 1029.7 in /  34865.6 hPa West 3.7 mph /  6 km/h 3.7 mph /  6 km/h 71 % 0.0 in /  0 mm
02:54 15.5 °F /  -9.2 °C 10.3 °F /  -12.1 °C 1029.7 in /  34865.6 hPa West 4.8 mph /  7.7 km/h 4.8 mph /  7.7 km/h 71 % 0.0 in /  0 mm
02:59 15.4 °F /  -9.2 °C 10.2 °F /  -12.1 °C 1029.7 in /  34865.6 hPa West 5.6 mph /  9 km/h 5.6 mph /  9 km/h 71 % 0.0 in /  0 mm
03:04 15.4 °F /  -9.2 °C 10.2 °F /  -12.1 °C 1029.7 in /  34865.6 hPa West 5.6 mph /  9 km/h 5.6 mph /  9 km/h 71 % 0.0 in /  0 mm
03:05 15.4 °F /  -9.2 °C 10.2 °F /  -12.1 °C 1029.7 in /  34865.6 hPa West 5.6 mph /  9 km/h 5.6 mph /  9 km/h 71 % 0.0 in /  0 mm
03:10 15.4 °F /  -9.2 °C 10.2 °F /  -12.1 °C 1029.7 in /  34865.6 hPa West 6.4 mph /  10.3 km/h 6.4 mph /  10.3 km/h 71 % 0.0 in /  0 mm
03:11 15.4 °F /  -9.2 °C 10.2 °F /  -12.1 °C 1029.7 in /  34865.6 hPa West 6.4 mph /  10.3 km/h 6.4 mph /  10.3 km/h 71 % 0.0 in /  0 mm
03:12 15.4 °F /  -9.2 °C 10.2 °F /  -12.1 °C 1029.7 in /  34865.6 hPa West 5.6 mph /  9 km/h 6.1 mph /  9.8 km/h 71 % 0.0 in /  0 mm
03:17 15.4 °F /  -9.2 °C 10.2 °F /  -12.1 °C 1029.7 in /  34865.6 hPa West 5.6 mph /  9 km/h 5.6 mph /  9 km/h 71 % 0.0 in /  0 mm
03:22 15.4 °F /  -9.2 °C 10.2 °F /  -12.1 °C 1029.7 in /  34865.6 hPa Calm     71 % 0.0 in /  0 mm
03:23 15.4 °F /  -9.2 °C 10.2 °F /  -12.1 °C 1029.7 in /  34865.6 hPa West 1.9 mph /  3.1 km/h   71 % 0.0 in /  0 mm
03:28 15.3 °F /  -9.3 °C 9.9 °F /  -12.3 °C 1029.7 in /  34865.6 hPa WNW 5.6 mph /  9 km/h 5.6 mph /  9 km/h 70 % 0.0 in /  0 mm
03:33 15.2 °F /  -9.3 °C 10.0 °F /  -12.2 °C 1029.7 in /  34865.6 hPa ENE 7.4 mph /  11.9 km/h 7.4 mph /  11.9 km/h 71 % 0.0 in /  0 mm
03:37 14.9 °F /  -9.5 °C 10.1 °F /  -12.2 °C 1029.7 in /  34865.6 hPa Calm     73 % 0.0 in /  0 mm
03:39 14.8 °F /  -9.6 °C 10.0 °F /  -12.2 °C 1029.7 in /  34865.6 hPa Calm     73 % 0.0 in /  0 mm
03:44 14.6 °F /  -9.7 °C 10.0 °F /  -12.2 °C 1029.7 in /  34865.6 hPa Calm     74 % 0.0 in /  0 mm
03:46 14.5 °F /  -9.7 °C 9.9 °F /  -12.3 °C 1029.7 in /  34865.6 hPa Calm     74 % 0.0 in /  0 mm
03:51 14.5 °F /  -9.7 °C 9.9 °F /  -12.3 °C 1029.7 in /  34865.6 hPa Calm     74 % 0.0 in /  0 mm
03:53 14.4 °F /  -9.8 °C 9.9 °F /  -12.3 °C 1029.7 in /  34865.6 hPa Calm     74 % 0.0 in /  0 mm
03:54 14.4 °F /  -9.8 °C 9.9 °F /  -12.3 °C 1029.7 in /  34865.6 hPa NW 4.8 mph /  7.7 km/h 4.8 mph /  7.7 km/h 74 % 0.0 in /  0 mm
03:59 14.3 °F /  -9.8 °C 9.6 °F /  -12.4 °C 1029.7 in /  34865.6 hPa North 6.4 mph /  10.3 km/h 6.4 mph /  10.3 km/h 73 % 0.0 in /  0 mm
04:04 14.2 °F /  -9.9 °C 9.7 °F /  -12.4 °C 1029.7 in /  34865.6 hPa NNW 5.6 mph /  9 km/h 5.6 mph /  9 km/h 74 % 0.0 in /  0 mm
04:06 14.2 °F /  -9.9 °C 9.7 °F /  -12.4 °C 1029.7 in /  34865.6 hPa North 3.7 mph /  6 km/h 3.7 mph /  6 km/h 74 % 0.0 in /  0 mm
04:07 14.2 °F /  -9.9 °C 9.7 °F /  -12.4 °C 1029.7 in /  34865.6 hPa North 3.7 mph /  6 km/h 3.7 mph /  6 km/h 74 % 0.0 in /  0 mm
04:12 14.1 °F /  -9.9 °C 9.5 °F /  -12.5 °C 1029.7 in /  34865.6 hPa Calm     74 % 0.0 in /  0 mm
04:15 13.9 °F /  -10.1 °C 9.4 °F /  -12.6 °C 1029.7 in /  34865.6 hPa North 3.7 mph /  6 km/h 3.7 mph /  6 km/h 74 % 0.0 in /  0 mm
04:16 13.9 °F /  -10.1 °C 9.3 °F /  -12.6 °C 1029.7 in /  34865.6 hPa North 1.9 mph /  3.1 km/h 1.9 mph /  3.1 km/h 74 % 0.0 in /  0 mm
04:21 13.8 °F /  -10.1 °C 9.5 °F /  -12.5 °C 1029.7 in /  34865.6 hPa Calm     75 % 0.0 in /  0 mm
04:26 14.1 °F /  -9.9 °C 9.9 °F /  -12.3 °C 1029.7 in /  34865.6 hPa North 3.7 mph /  6 km/h 3.7 mph /  6 km/h 76 % 0.0 in /  0 mm
04:31 14.2 °F /  -9.9 °C 10.1 °F /  -12.2 °C 1029.7 in /  34865.6 hPa Calm     76 % 0.0 in /  0 mm
04:35 14.3 °F /  -9.8 °C 10.2 °F /  -12.1 °C 1029.7 in /  34865.6 hPa North 3.7 mph /  6 km/h 3.7 mph /  6 km/h 76 % 0.0 in /  0 mm
04:40 14.4 °F /  -9.8 °C 10.3 °F /  -12.1 °C 1029.7 in /  34865.6 hPa Calm     76 % 0.0 in /  0 mm
04:45 14.6 °F /  -9.7 °C 10.4 °F /  -12 °C 1029.7 in /  34865.6 hPa Calm     76 % 0.0 in /  0 mm
04:47 14.6 °F /  -9.7 °C 10.4 °F /  -12 °C 1029.7 in /  34865.6 hPa Calm     76 % 0.0 in /  0 mm
04:48 14.7 °F /  -9.6 °C 10.5 °F /  -11.9 °C 1029.7 in /  34865.6 hPa Calm     76 % 0.0 in /  0 mm
04:53 14.9 °F /  -9.5 °C 10.7 °F /  -11.8 °C 1029.7 in /  34865.6 hPa North 3.7 mph /  6 km/h 3.7 mph /  6 km/h 76 % 0.0 in /  0 mm
04:57 14.9 °F /  -9.5 °C 10.3 °F /  -12.1 °C 1029.7 in /  34865.6 hPa North 5.6 mph /  9 km/h 5.6 mph /  9 km/h 74 % 0.0 in /  0 mm
04:58 14.8 °F /  -9.6 °C 10.2 °F /  -12.1 °C 1029.7 in /  34865.6 hPa North 7.4 mph /  11.9 km/h 7.4 mph /  11.9 km/h 74 % 0.0 in /  0 mm
05:02 14.2 °F /  -9.9 °C 9.4 °F /  -12.6 °C 1029.7 in /  34865.6 hPa North 5.6 mph /  9 km/h 5.6 mph /  9 km/h 73 % 0.0 in /  0 mm
05:04 14.1 °F /  -9.9 °C 9.6 °F /  -12.4 °C 1029.7 in /  34865.6 hPa North 5.6 mph /  9 km/h 5.6 mph /  9 km/h 74 % 0.0 in /  0 mm
05:10 13.8 °F /  -10.1 °C 9.5 °F /  -12.5 °C 1029.7 in /  34865.6 hPa NW 6.4 mph /  10.3 km/h 6.4 mph /  10.3 km/h 75 % 0.0 in /  0 mm
05:15 14.0 °F /  -10 °C 9.8 °F /  -12.3 °C 1029.7 in /  34865.6 hPa Calm     76 % 0.0 in /  0 mm
05:17 14.1 °F /  -9.9 °C 9.7 °F /  -12.4 °C 1029.7 in /  34865.6 hPa Calm     75 % 0.0 in /  0 mm
05:22 14.2 °F /  -9.9 °C 9.8 °F /  -12.3 °C 1029.7 in /  34865.6 hPa NNW 8.0 mph /  12.9 km/h 8.0 mph /  12.9 km/h 75 % 0.0 in /  0 mm
05:23 14.2 °F /  -9.9 °C 9.8 °F /  -12.3 °C 1029.7 in /  34865.6 hPa NNW 9.3 mph /  15 km/h 9.3 mph /  15 km/h 75 % 0.0 in /  0 mm
05:27 14.2 °F /  -9.9 °C 9.8 °F /  -12.3 °C 1029.3 in /  34852.1 hPa SSW 7.4 mph /  11.9 km/h 7.4 mph /  11.9 km/h 75 % 0.0 in /  0 mm
05:28 14.2 °F /  -9.9 °C 9.8 °F /  -12.3 °C 1029.7 in /  34865.6 hPa SSW 7.4 mph /  11.9 km/h 7.4 mph /  11.9 km/h 75 % 0.0 in /  0 mm
05:29 14.2 °F /  -9.9 °C 9.8 °F /  -12.3 °C 1029.7 in /  34865.6 hPa SW 8.0 mph /  12.9 km/h 8.0 mph /  12.9 km/h 75 % 0.0 in /  0 mm
05:34 14.2 °F /  -9.9 °C 10.1 °F /  -12.2 °C 1029.7 in /  34865.6 hPa WSW 1.9 mph /  3.1 km/h   76 % 0.0 in /  0 mm
05:36 14.2 °F /  -9.9 °C 10.1 °F /  -12.2 °C 1029.7 in /  34865.6 hPa Calm     76 % 0.0 in /  0 mm
05:41 14.2 °F /  -9.9 °C 10.0 °F /  -12.2 °C 1029.3 in /  34852.1 hPa Calm     76 % 0.0 in /  0 mm
05:46 14.3 °F /  -9.8 °C 10.3 °F /  -12.1 °C 1029.3 in /  34852.1 hPa West 4.8 mph /  7.7 km/h 4.8 mph /  7.7 km/h 77 % 0.0 in /  0 mm
05:48 14.3 °F /  -9.8 °C 10.3 °F /  -12.1 °C 1029.3 in /  34852.1 hPa West 5.6 mph /  9 km/h 5.6 mph /  9 km/h 77 % 0.0 in /  0 mm
05:53 14.0 °F /  -10 °C 9.6 °F /  -12.4 °C 1029.3 in /  34852.1 hPa West 3.7 mph /  6 km/h 3.7 mph /  6 km/h 75 % 0.0 in /  0 mm
05:54 13.9 °F /  -10.1 °C 9.8 °F /  -12.3 °C 1029.3 in /  34852.1 hPa West 1.9 mph /  3.1 km/h   76 % 0.0 in /  0 mm
05:59 13.9 °F /  -10.1 °C 9.9 °F /  -12.3 °C 1029.3 in /  34852.1 hPa West 1.9 mph /  3.1 km/h 1.9 mph /  3.1 km/h 77 % 0.0 in /  0 mm
06:00 13.9 °F /  -10.1 °C 9.9 °F /  -12.3 °C 1029.3 in /  34852.1 hPa West 1.9 mph /  3.1 km/h 1.9 mph /  3.1 km/h 77 % 0.0 in /  0 mm
06:05 13.8 °F /  -10.1 °C 9.9 °F /  -12.3 °C 1029.3 in /  34852.1 hPa West 1.6 mph /  2.6 km/h   77 % 0.0 in /  0 mm
06:06 13.8 °F /  -10.1 °C 9.9 °F /  -12.3 °C 1029.3 in /  34852.1 hPa West 1.9 mph /  3.1 km/h 1.9 mph /  3.1 km/h 77 % 0.0 in /  0 mm
06:11 13.8 °F /  -10.1 °C 9.9 °F /  -12.3 °C 1029.3 in /  34852.1 hPa Calm     77 % 0.0 in /  0 mm
06:13 13.8 °F /  -10.1 °C 9.8 °F /  -12.3 °C 1029.3 in /  34852.1 hPa West 1.9 mph /  3.1 km/h   77 % 0.0 in /  0 mm
06:18 13.7 °F /  -10.2 °C 9.8 °F /  -12.3 °C 1029.0 in /  34841.9 hPa Calm     77 % 0.0 in /  0 mm
06:21 13.7 °F /  -10.2 °C 9.7 °F /  -12.4 °C 1029.3 in /  34852.1 hPa Calm     77 % 0.0 in /  0 mm
06:24 13.7 °F /  -10.2 °C 9.7 °F /  -12.4 °C 1029.3 in /  34852.1 hPa Calm     77 % 0.0 in /  0 mm
06:29 13.6 °F /  -10.2 °C 9.7 °F /  -12.4 °C 1029.0 in /  34841.9 hPa Calm     77 % 0.0 in /  0 mm
06:31 13.7 °F /  -10.2 °C 9.7 °F /  -12.4 °C 1029.0 in /  34841.9 hPa Calm     77 % 0.0 in /  0 mm
06:36 13.2 °F /  -10.4 °C 9.1 °F /  -12.7 °C 1029.3 in /  34852.1 hPa NNE 5.6 mph /  9 km/h 5.6 mph /  9 km/h 76 % 0.0 in /  0 mm
06:41 13.2 °F /  -10.4 °C 9.2 °F /  -12.7 °C 1029.3 in /  34852.1 hPa SW 6.4 mph /  10.3 km/h 6.4 mph /  10.3 km/h 77 % 0.0 in /  0 mm
06:43 13.2 °F /  -10.4 °C 9.4 °F /  -12.6 °C 1029.3 in /  34852.1 hPa SW 6.4 mph /  10.3 km/h 6.4 mph /  10.3 km/h 78 % 0.0 in /  0 mm
06:47 13.3 °F /  -10.4 °C 9.7 °F /  -12.4 °C 1029.3 in /  34852.1 hPa SW 5.6 mph /  9 km/h 5.6 mph /  9 km/h 79 % 0.0 in /  0 mm
06:50 13.4 °F /  -10.3 °C 9.8 °F /  -12.3 °C 1029.3 in /  34852.1 hPa SW 3.7 mph /  6 km/h 3.7 mph /  6 km/h 79 % 0.0 in /  0 mm
06:55 13.6 °F /  -10.2 °C 10.3 °F /  -12.1 °C 1029.3 in /  34852.1 hPa East 3.7 mph /  6 km/h   81 % 0.0 in /  0 mm
06:56 13.6 °F /  -10.2 °C 10.3 °F /  -12.1 °C 1029.3 in /  34852.1 hPa East 3.7 mph /  6 km/h   81 % 0.0 in /  0 mm
07:01 13.6 °F /  -10.2 °C 10.3 °F /  -12.1 °C 1029.3 in /  34852.1 hPa Calm     81 % 0.0 in /  0 mm
07:02 13.6 °F /  -10.2 °C 10.2 °F /  -12.1 °C 1029.3 in /  34852.1 hPa Calm     80 % 0.0 in /  0 mm
07:07 13.5 °F /  -10.3 °C 10.3 °F /  -12.1 °C 1029.7 in /  34865.6 hPa Calm     81 % 0.0 in /  0 mm
07:12 13.5 °F /  -10.3 °C 10.1 °F /  -12.2 °C 1029.7 in /  34865.6 hPa WSW 5.6 mph /  9 km/h 5.6 mph /  9 km/h 80 % 0.0 in /  0 mm
07:15 13.5 °F /  -10.3 °C 10.3 °F /  -12.1 °C 1029.7 in /  34865.6 hPa WSW 3.2 mph /  5.1 km/h 6.4 mph /  10.3 km/h 81 % 0.0 in /  0 mm
07:16 13.5 °F /  -10.3 °C 10.1 °F /  -12.2 °C 1029.7 in /  34865.6 hPa NW 5.6 mph /  9 km/h 5.6 mph /  9 km/h 80 % 0.0 in /  0 mm
07:20 13.4 °F /  -10.3 °C 9.9 °F /  -12.3 °C 1029.7 in /  34865.6 hPa NW 3.7 mph /  6 km/h   79 % 0.0 in /  0 mm
07:25 13.4 °F /  -10.3 °C 9.8 °F /  -12.3 °C 1029.7 in /  34865.6 hPa North 3.7 mph /  6 km/h 3.7 mph /  6 km/h 79 % 0.0 in /  0 mm
07:26 13.4 °F /  -10.3 °C 9.8 °F /  -12.3 °C 1029.7 in /  34865.6 hPa North 3.7 mph /  6 km/h 3.7 mph /  6 km/h 79 % 0.0 in /  0 mm
07:31 13.3 °F /  -10.4 °C 9.8 °F /  -12.3 °C 1029.7 in /  34865.6 hPa Calm     79 % 0.0 in /  0 mm
07:32 13.3 °F /  -10.4 °C 9.8 °F /  -12.3 °C 1029.7 in /  34865.6 hPa Calm     79 % 0.0 in /  0 mm
07:36 13.1 °F /  -10.5 °C 9.5 °F /  -12.5 °C 1030.0 in /  34875.8 hPa NNE 5.6 mph /  9 km/h 5.6 mph /  9 km/h 79 % 0.0 in /  0 mm
07:41 12.9 °F /  -10.6 °C 9.6 °F /  -12.4 °C 1030.0 in /  34875.8 hPa NNE 3.7 mph /  6 km/h 3.7 mph /  6 km/h 80 % 0.0 in /  0 mm
07:45 12.9 °F /  -10.6 °C 9.5 °F /  -12.5 °C 1030.0 in /  34875.8 hPa NNE 3.7 mph /  6 km/h   80 % 0.0 in /  0 mm
07:51 12.9 °F /  -10.6 °C 9.7 °F /  -12.4 °C 1030.0 in /  34875.8 hPa Calm     81 % 0.0 in /  0 mm
07:56 13.0 °F /  -10.6 °C 9.8 °F /  -12.3 °C 1030.0 in /  34875.8 hPa Calm     81 % 0.0 in /  0 mm
08:01 13.1 °F /  -10.5 °C 9.9 °F /  -12.3 °C 1030.0 in /  34875.8 hPa Calm     81 % 0.0 in /  0 mm
08:02 13.1 °F /  -10.5 °C 9.9 °F /  -12.3 °C 1030.0 in /  34875.8 hPa Calm     81 % 0.0 in /  0 mm
08:03 13.1 °F /  -10.5 °C 9.9 °F /  -12.3 °C 1030.0 in /  34875.8 hPa NNE 3.2 mph /  5.1 km/h 3.2 mph /  5.1 km/h 81 % 0.0 in /  0 mm
08:08 13.0 °F /  -10.6 °C 9.8 °F /  -12.3 °C 1030.0 in /  34875.8 hPa NNE 5.6 mph /  9 km/h 5.6 mph /  9 km/h 81 % 0.0 in /  0 mm
08:13 13.0 °F /  -10.6 °C 9.8 °F /  -12.3 °C 1030.0 in /  34875.8 hPa NNE 3.7 mph /  6 km/h 3.7 mph /  6 km/h 81 % 0.0 in /  0 mm
08:16 13.0 °F /  -10.6 °C 9.8 °F /  -12.3 °C 1030.0 in /  34875.8 hPa North 5.6 mph /  9 km/h 5.6 mph /  9 km/h 81 % 0.0 in /  0 mm
08:21 12.9 °F /  -10.6 °C 9.9 °F /  -12.3 °C 1030.0 in /  34875.8 hPa North 1.9 mph /  3.1 km/h   82 % 0.0 in /  0 mm
08:22 13.0 °F /  -10.6 °C 10.0 °F /  -12.2 °C 1030.0 in /  34875.8 hPa Calm     82 % 0.0 in /  0 mm
08:27 13.1 °F /  -10.5 °C 10.1 °F /  -12.2 °C 1030.4 in /  34889.3 hPa Calm     82 % 0.0 in /  0 mm
08:30 13.0 °F /  -10.6 °C 10.0 °F /  -12.2 °C 1030.0 in /  34875.8 hPa Calm     82 % 0.0 in /  0 mm
08:33 13.1 °F /  -10.5 °C 10.1 °F /  -12.2 °C 1030.0 in /  34875.8 hPa Calm     82 % 0.0 in /  0 mm
08:38 13.1 °F /  -10.5 °C 10.1 °F /  -12.2 °C 1030.0 in /  34875.8 hPa NW 5.6 mph /  9 km/h 5.6 mph /  9 km/h 82 % 0.0 in /  0 mm
08:40 13.1 °F /  -10.5 °C 10.1 °F /  -12.2 °C 1030.0 in /  34875.8 hPa NW 3.7 mph /  6 km/h 3.7 mph /  6 km/h 82 % 0.0 in /  0 mm
08:45 13.1 °F /  -10.5 °C 10.1 °F /  -12.2 °C 1030.0 in /  34875.8 hPa Calm     82 % 0.0 in /  0 mm
08:50 13.2 °F /  -10.4 °C 10.2 °F /  -12.1 °C 1030.0 in /  34875.8 hPa NW 5.6 mph /  9 km/h 5.6 mph /  9 km/h 82 % 0.0 in /  0 mm
08:52 13.2 °F /  -10.4 °C 10.0 °F /  -12.2 °C 1030.0 in /  34875.8 hPa NNW 3.7 mph /  6 km/h 3.7 mph /  6 km/h 81 % 0.0 in /  0 mm
08:57 13.3 °F /  -10.4 °C 10.1 °F /  -12.2 °C 1030.4 in /  34889.3 hPa NNW 5.6 mph /  9 km/h 5.6 mph /  9 km/h 81 % 0.0 in /  0 mm
09:02 13.4 °F /  -10.3 °C 10.2 °F /  -12.1 °C 1030.4 in /  34889.3 hPa Calm     81 % 0.0 in /  0 mm
09:05 13.3 °F /  -10.4 °C 10.2 °F /  -12.1 °C 1030.4 in /  34889.3 hPa Calm     81 % 0.0 in /  0 mm
09:08 13.3 °F /  -10.4 °C 10.1 °F /  -12.2 °C 1030.4 in /  34889.3 hPa NNW 5.6 mph /  9 km/h 5.6 mph /  9 km/h 81 % 0.0 in /  0 mm
09:13 13.5 °F /  -10.3 °C 10.3 °F /  -12.1 °C 1030.4 in /  34889.3 hPa NNW 3.7 mph /  6 km/h 3.7 mph /  6 km/h 81 % 0.0 in /  0 mm
09:19 13.6 °F /  -10.2 °C 10.2 °F /  -12.1 °C 1030.4 in /  34889.3 hPa Calm     80 % 0.0 in /  0 mm
09:23 13.7 °F /  -10.2 °C 10.3 °F /  -12.1 °C 1030.4 in /  34889.3 hPa Calm     80 % 0.0 in /  0 mm
09:24 13.7 °F /  -10.2 °C 10.3 °F /  -12.1 °C 1030.4 in /  34889.3 hPa Calm     80 % 0.0 in /  0 mm
09:29 13.8 °F /  -10.1 °C 10.4 °F /  -12 °C 1030.4 in /  34889.3 hPa Calm     80 % 0.0 in /  0 mm
09:34 14.1 °F /  -9.9 °C 10.7 °F /  -11.8 °C 1030.4 in /  34889.3 hPa Calm     80 % 0.0 in /  0 mm
09:36 14.2 °F /  -9.9 °C 10.8 °F /  -11.8 °C 1030.7 in /  34899.5 hPa NNW 3.7 mph /  6 km/h 3.7 mph /  6 km/h 80 % 0.0 in /  0 mm
09:40 14.2 °F /  -9.9 °C 10.6 °F /  -11.9 °C 1030.7 in /  34899.5 hPa Calm     79 % 0.0 in /  0 mm
09:42 14.3 °F /  -9.8 °C 10.7 °F /  -11.8 °C 1030.7 in /  34899.5 hPa Calm     79 % 0.0 in /  0 mm
09:47 14.4 °F /  -9.8 °C 10.8 °F /  -11.8 °C 1030.7 in /  34899.5 hPa Calm     79 % 0.0 in /  0 mm
09:49 14.5 °F /  -9.7 °C 10.9 °F /  -11.7 °C 1030.7 in /  34899.5 hPa Calm     79 % 0.0 in /  0 mm
09:53 14.7 °F /  -9.6 °C 11.1 °F /  -11.6 °C 1030.7 in /  34899.5 hPa Calm     79 % 0.0 in /  0 mm
09:58 14.8 °F /  -9.6 °C 11.2 °F /  -11.6 °C 1030.7 in /  34899.5 hPa Calm     79 % 0.0 in /  0 mm
10:02 15.1 °F /  -9.4 °C 11.4 °F /  -11.4 °C 1031.0 in /  34909.7 hPa Calm     79 % 0.0 in /  0 mm
10:04 15.1 °F /  -9.4 °C 11.5 °F /  -11.4 °C 1031.0 in /  34909.7 hPa NNW 1.9 mph /  3.1 km/h 1.9 mph /  3.1 km/h 79 % 0.0 in /  0 mm
10:07 15.1 °F /  -9.4 °C 11.5 °F /  -11.4 °C 1031.0 in /  34909.7 hPa Calm     79 % 0.0 in /  0 mm
10:11 15.2 °F /  -9.3 °C 11.6 °F /  -11.3 °C 1031.0 in /  34909.7 hPa Calm     79 % 0.0 in /  0 mm
10:16 15.3 °F /  -9.3 °C 11.7 °F /  -11.3 °C 1031.0 in /  34909.7 hPa Calm     79 % 0.0 in /  0 mm
10:22 15.2 °F /  -9.3 °C 11.2 °F /  -11.6 °C 1031.0 in /  34909.7 hPa NNW 3.7 mph /  6 km/h 3.7 mph /  6 km/h 77 % 0.0 in /  0 mm
10:27 15.3 °F /  -9.3 °C 11.3 °F /  -11.5 °C 1031.4 in /  34923.2 hPa Calm     77 % 0.0 in /  0 mm
10:28 15.3 °F /  -9.3 °C 11.3 °F /  -11.5 °C 1031.4 in /  34923.2 hPa Calm     77 % 0.0 in /  0 mm
10:33 15.5 °F /  -9.2 °C 11.5 °F /  -11.4 °C 1031.4 in /  34923.2 hPa Calm     77 % 0.0 in /  0 mm
10:35 15.6 °F /  -9.1 °C 11.6 °F /  -11.3 °C 1031.4 in /  34923.2 hPa Calm     77 % 0.0 in /  0 mm
10:38 15.6 °F /  -9.1 °C 11.4 °F /  -11.4 °C 1031.4 in /  34923.2 hPa Calm     76 % 0.0 in /  0 mm
10:41 15.7 °F /  -9.1 °C 11.7 °F /  -11.3 °C 1031.4 in /  34923.2 hPa Calm     77 % 0.0 in /  0 mm
10:46 16.0 °F /  -8.9 °C 12.2 °F /  -11 °C 1031.4 in /  34923.2 hPa Calm     78 % 0.0 in /  0 mm
10:48 16.1 °F /  -8.8 °C 12.2 °F /  -11 °C 1031.4 in /  34923.2 hPa Calm     78 % 0.0 in /  0 mm
10:53 16.2 °F /  -8.8 °C 12.5 °F /  -10.8 °C 1031.4 in /  34923.2 hPa NNW 5.6 mph /  9 km/h 5.6 mph /  9 km/h 79 % 0.0 in /  0 mm
10:54 16.2 °F /  -8.8 °C 12.5 °F /  -10.8 °C 1031.4 in /  34923.2 hPa NNW 3.7 mph /  6 km/h 3.7 mph /  6 km/h 79 % 0.0 in /  0 mm
10:59 16.3 °F /  -8.7 °C 12.6 °F /  -10.8 °C 1031.4 in /  34923.2 hPa Calm     79 % 0.0 in /  0 mm
11:01 16.3 °F /  -8.7 °C 12.7 °F /  -10.7 °C 1031.7 in /  34933.4 hPa Calm     79 % 0.0 in /  0 mm
11:06 16.4 °F /  -8.7 °C 12.8 °F /  -10.7 °C 1031.4 in /  34923.2 hPa Calm     79 % 0.0 in /  0 mm
11:10 16.6 °F /  -8.6 °C 12.9 °F /  -10.6 °C 1031.7 in /  34933.4 hPa Calm   3.2 mph /  5.1 km/h 79 % 0.0 in /  0 mm
11:11 16.6 °F /  -8.6 °C 12.9 °F /  -10.6 °C 1031.4 in /  34923.2 hPa NNW 1.9 mph /  3.1 km/h 1.9 mph /  3.1 km/h 79 % 0.0 in /  0 mm
11:12 16.7 °F /  -8.5 °C 13.0 °F /  -10.6 °C 1031.4 in /  34923.2 hPa NNW 3.2 mph /  5.1 km/h 3.2 mph /  5.1 km/h 79 % 0.0 in /  0 mm
11:17 16.7 °F /  -8.5 °C 13.0 °F /  -10.6 °C 1031.4 in /  34923.2 hPa NNW 3.7 mph /  6 km/h 3.7 mph /  6 km/h 79 % 0.0 in /  0 mm
11:18 16.7 °F /  -8.5 °C 12.8 °F /  -10.7 °C 1031.4 in /  34923.2 hPa NNW 5.6 mph /  9 km/h 5.6 mph /  9 km/h 78 % 0.0 in /  0 mm
11:23 16.5 °F /  -8.6 °C 12.4 °F /  -10.9 °C 1031.4 in /  34923.2 hPa NNW 5.6 mph /  9 km/h 5.6 mph /  9 km/h 77 % 0.0 in /  0 mm
11:25 16.5 °F /  -8.6 °C 12.4 °F /  -10.9 °C 1031.4 in /  34923.2 hPa NNW 5.6 mph /  9 km/h 5.6 mph /  9 km/h 77 % 0.0 in /  0 mm
11:28 16.6 °F /  -8.6 °C 12.5 °F /  -10.8 °C 1031.4 in /  34923.2 hPa NNW 5.6 mph /  9 km/h 5.6 mph /  9 km/h 77 % 0.0 in /  0 mm
11:33 16.6 °F /  -8.6 °C 12.3 °F /  -10.9 °C 1031.4 in /  34923.2 hPa NW 5.6 mph /  9 km/h 5.6 mph /  9 km/h 76 % 0.0 in /  0 mm
11:35 16.7 °F /  -8.5 °C 12.4 °F /  -10.9 °C 1031.4 in /  34923.2 hPa NW 5.6 mph /  9 km/h 5.6 mph /  9 km/h 76 % 0.0 in /  0 mm
11:40 16.8 °F /  -8.4 °C 12.4 °F /  -10.9 °C 1031.4 in /  34923.2 hPa NW 3.7 mph /  6 km/h 3.7 mph /  6 km/h 75 % 0.0 in /  0 mm
11:41 16.9 °F /  -8.4 °C 12.4 °F /  -10.9 °C 1031.4 in /  34923.2 hPa NW 3.7 mph /  6 km/h 3.7 mph /  6 km/h 75 % 0.0 in /  0 mm
11:46 17.0 °F /  -8.3 °C 12.6 °F /  -10.8 °C 1031.4 in /  34923.2 hPa NW 3.7 mph /  6 km/h 3.7 mph /  6 km/h 75 % 0.0 in /  0 mm
11:48 17.1 °F /  -8.3 °C 12.6 °F /  -10.8 °C 1031.4 in /  34923.2 hPa NW 3.7 mph /  6 km/h 3.7 mph /  6 km/h 75 % 0.0 in /  0 mm
11:53 17.2 °F /  -8.2 °C 12.7 °F /  -10.7 °C 1031.4 in /  34923.2 hPa NW 1.9 mph /  3.1 km/h   75 % 0.0 in /  0 mm
11:54 17.2 °F /  -8.2 °C 12.7 °F /  -10.7 °C 1031.4 in /  34923.2 hPa NW 1.9 mph /  3.1 km/h 1.9 mph /  3.1 km/h 75 % 0.0 in /  0 mm
11:59 17.3 °F /  -8.2 °C 13.1 °F /  -10.5 °C 1031.4 in /  34923.2 hPa NW 3.2 mph /  5.1 km/h 3.2 mph /  5.1 km/h 76 % 0.0 in /  0 mm
12:00 17.4 °F /  -8.1 °C 13.1 °F /  -10.5 °C 1031.4 in /  34923.2 hPa NW 3.7 mph /  6 km/h 3.7 mph /  6 km/h 76 % 0.0 in /  0 mm
12:05 17.4 °F /  -8.1 °C 13.4 °F /  -10.3 °C 1031.4 in /  34923.2 hPa Calm     77 % 0.0 in /  0 mm
12:06 17.4 °F /  -8.1 °C 13.4 °F /  -10.3 °C 1031.4 in /  34923.2 hPa Calm     77 % 0.0 in /  0 mm
12:11 17.6 °F /  -8 °C 13.6 °F /  -10.2 °C 1031.4 in /  34923.2 hPa Calm     77 % 0.0 in /  0 mm
12:12 17.6 °F /  -8 °C 13.6 °F /  -10.2 °C 1031.4 in /  34923.2 hPa Calm     77 % 0.0 in /  0 mm
12:16 17.6 °F /  -8 °C 13.6 °F /  -10.2 °C 1031.4 in /  34923.2 hPa Calm     77 % 0.0 in /  0 mm
12:22 17.7 °F /  -7.9 °C 13.4 °F /  -10.3 °C 1031.0 in /  34909.7 hPa NW 1.9 mph /  3.1 km/h 1.9 mph /  3.1 km/h 76 % 0.0 in /  0 mm
12:23 17.7 °F /  -7.9 °C 13.4 °F /  -10.3 °C 1031.0 in /  34909.7 hPa NW 1.9 mph /  3.1 km/h   76 % 0.0 in /  0 mm
12:32 17.8 °F /  -7.9 °C 13.1 °F /  -10.5 °C 1031.0 in /  34909.7 hPa Calm     74 % 0.0 in /  0 mm
12:34 17.9 °F /  -7.8 °C 13.2 °F /  -10.4 °C 1031.0 in /  34909.7 hPa Calm     74 % 0.0 in /  0 mm
12:39 18.1 °F /  -7.7 °C 13.3 °F /  -10.4 °C 1031.0 in /  34909.7 hPa NW 3.7 mph /  6 km/h 3.7 mph /  6 km/h 74 % 0.0 in /  0 mm
12:41 18.1 °F /  -7.7 °C 13.2 °F /  -10.4 °C 1030.7 in /  34899.5 hPa NW 1.9 mph /  3.1 km/h 1.9 mph /  3.1 km/h 73 % 0.0 in /  0 mm
12:46 18.2 °F /  -7.7 °C 13.3 °F /  -10.4 °C 1030.7 in /  34899.5 hPa Calm     73 % 0.0 in /  0 mm
12:49 18.2 °F /  -7.7 °C 13.3 °F /  -10.4 °C 1030.7 in /  34899.5 hPa NW 3.7 mph /  6 km/h 3.7 mph /  6 km/h 73 % 0.0 in /  0 mm
12:52 18.2 °F /  -7.7 °C 13.1 °F /  -10.5 °C 1030.7 in /  34899.5 hPa NW 3.7 mph /  6 km/h 3.7 mph /  6 km/h 72 % 0.0 in /  0 mm
12:54 18.2 °F /  -7.7 °C 13.1 °F /  -10.5 °C 1030.7 in /  34899.5 hPa NW 4.8 mph /  7.7 km/h 4.8 mph /  7.7 km/h 72 % 0.0 in /  0 mm
12:59 18.0 °F /  -7.8 °C 12.7 °F /  -10.7 °C 1030.7 in /  34899.5 hPa West 6.4 mph /  10.3 km/h 6.8 mph /  10.9 km/h 71 % 0.0 in /  0 mm
13:00 18.0 °F /  -7.8 °C 12.7 °F /  -10.7 °C 1030.4 in /  34889.3 hPa WSW 9.7 mph /  15.6 km/h 9.7 mph /  15.6 km/h 71 % 0.0 in /  0 mm
13:05 17.7 °F /  -7.9 °C 12.4 °F /  -10.9 °C 1030.4 in /  34889.3 hPa WSW 7.4 mph /  11.9 km/h 7.4 mph /  11.9 km/h 71 % 0.0 in /  0 mm
13:06 17.7 °F /  -7.9 °C 12.3 °F /  -10.9 °C 1030.4 in /  34889.3 hPa WSW 5.6 mph /  9 km/h 5.6 mph /  9 km/h 71 % 0.0 in /  0 mm
13:10 17.8 °F /  -7.9 °C 12.4 °F /  -10.9 °C 1030.0 in /  34875.8 hPa WSW 7.4 mph /  11.9 km/h 7.4 mph /  11.9 km/h 71 % 0.0 in /  0 mm
13:12 17.9 °F /  -7.8 °C 12.8 °F /  -10.7 °C 1030.0 in /  34875.8 hPa West 8.0 mph /  12.9 km/h 8.0 mph /  12.9 km/h 72 % 0.0 in /  0 mm
13:17 18.2 °F /  -7.7 °C 12.8 °F /  -10.7 °C 1030.0 in /  34875.8 hPa West 5.6 mph /  9 km/h 5.6 mph /  9 km/h 71 % 0.0 in /  0 mm
13:20 18.3 °F /  -7.6 °C 12.7 °F /  -10.7 °C 1030.0 in /  34875.8 hPa SW 8.0 mph /  12.9 km/h 8.0 mph /  12.9 km/h 70 % 0.0 in /  0 mm
13:24 18.1 °F /  -7.7 °C 12.7 °F /  -10.7 °C 1030.0 in /  34875.8 hPa SE 5.6 mph /  9 km/h 5.6 mph /  9 km/h 71 % 0.0 in /  0 mm
13:26 18.1 °F /  -7.7 °C 12.7 °F /  -10.7 °C 1030.0 in /  34875.8 hPa SSE 5.6 mph /  9 km/h 5.6 mph /  9 km/h 71 % 0.0 in /  0 mm
13:30 18.1 °F /  -7.7 °C 12.9 °F /  -10.6 °C 1030.0 in /  34875.8 hPa SSW 8.0 mph /  12.9 km/h 8.0 mph /  12.9 km/h 72 % 0.0 in /  0 mm
13:35 17.9 °F /  -7.8 °C 13.4 °F /  -10.3 °C 1030.0 in /  34875.8 hPa South 6.4 mph /  10.3 km/h 6.4 mph /  10.3 km/h 75 % 0.0 in /  0 mm
13:36 17.9 °F /  -7.8 °C 13.4 °F /  -10.3 °C 1030.0 in /  34875.8 hPa South 7.4 mph /  11.9 km/h 7.4 mph /  11.9 km/h 75 % 0.0 in /  0 mm
13:41 17.5 °F /  -8.1 °C 13.0 °F /  -10.6 °C 1030.0 in /  34875.8 hPa SW 9.3 mph /  15 km/h 9.3 mph /  15 km/h 75 % 0.0 in /  0 mm
13:42 17.4 °F /  -8.1 °C 12.9 °F /  -10.6 °C 1029.7 in /  34865.6 hPa SW 9.3 mph /  15 km/h 9.3 mph /  15 km/h 75 % 0.0 in /  0 mm
13:51 17.5 °F /  -8.1 °C 13.0 °F /  -10.6 °C 1029.7 in /  34865.6 hPa SW 7.4 mph /  11.9 km/h 7.4 mph /  11.9 km/h 75 % 0.0 in /  0 mm
13:52 17.5 °F /  -8.1 °C 13.0 °F /  -10.6 °C 1029.7 in /  34865.6 hPa SW 7.4 mph /  11.9 km/h 7.4 mph /  11.9 km/h 75 % 0.0 in /  0 mm
14:02 17.6 °F /  -8 °C 12.9 °F /  -10.6 °C 1029.3 in /  34852.1 hPa SW 9.3 mph /  15 km/h 9.3 mph /  15 km/h 74 % 0.0 in /  0 mm
14:06 17.6 °F /  -8 °C 12.9 °F /  -10.6 °C 1029.3 in /  34852.1 hPa WSW 11.1 mph /  17.9 km/h 11.1 mph /  17.9 km/h 74 % 0.0 in /  0 mm
14:08 17.5 °F /  -8.1 °C 12.6 °F /  -10.8 °C 1029.3 in /  34852.1 hPa WSW 11.1 mph /  17.9 km/h 11.1 mph /  17.9 km/h 73 % 0.0 in /  0 mm
14:13 17.4 °F /  -8.1 °C 12.3 °F /  -10.9 °C 1029.3 in /  34852.1 hPa WSW 11.1 mph /  17.9 km/h 11.1 mph /  17.9 km/h 72 % 0.0 in /  0 mm
14:14 17.4 °F /  -8.1 °C 12.1 °F /  -11.1 °C 1029.3 in /  34852.1 hPa WSW 9.3 mph /  15 km/h 9.3 mph /  15 km/h 71 % 0.0 in /  0 mm
14:20 17.6 °F /  -8 °C 12.4 °F /  -10.9 °C 1029.3 in /  34852.1 hPa WSW 8.0 mph /  12.9 km/h 9.7 mph /  15.6 km/h 72 % 0.0 in /  0 mm
14:22 17.7 °F /  -7.9 °C 12.6 °F /  -10.8 °C 1029.0 in /  34841.9 hPa SW 13.0 mph /  20.9 km/h 13.0 mph /  20.9 km/h 72 % 0.0 in /  0 mm
14:25 17.8 °F /  -7.9 °C 12.9 °F /  -10.6 °C 1029.0 in /  34841.9 hPa SW 13.0 mph /  20.9 km/h 13.0 mph /  20.9 km/h 73 % 0.0 in /  0 mm
14:29 17.7 °F /  -7.9 °C 13.2 °F /  -10.4 °C 1029.0 in /  34841.9 hPa SW 11.1 mph /  17.9 km/h 11.1 mph /  17.9 km/h 75 % 0.0 in /  0 mm
14:30 17.7 °F /  -7.9 °C 13.0 °F /  -10.6 °C 1029.0 in /  34841.9 hPa SW 11.1 mph /  17.9 km/h 11.1 mph /  17.9 km/h 74 % 0.0 in /  0 mm
14:35 17.6 °F /  -8 °C 12.9 °F /  -10.6 °C 1029.0 in /  34841.9 hPa WSW 11.3 mph /  18.2 km/h 11.3 mph /  18.2 km/h 74 % 0.0 in /  0 mm
14:38 17.6 °F /  -8 °C 12.9 °F /  -10.6 °C 1029.0 in /  34841.9 hPa SW 11.1 mph /  17.9 km/h 11.1 mph /  17.9 km/h 74 % 0.0 in /  0 mm
14:43 17.5 °F /  -8.1 °C 13.2 °F /  -10.4 °C 1028.7 in /  34831.8 hPa SW 13.0 mph /  20.9 km/h 13.0 mph /  20.9 km/h 76 % 0.0 in /  0 mm
14:48 17.3 °F /  -8.2 °C 12.8 °F /  -10.7 °C 1028.7 in /  34831.8 hPa WSW 13.0 mph /  20.9 km/h 13.0 mph /  20.9 km/h 75 % 0.0 in /  0 mm
14:50 17.3 °F /  -8.2 °C 13.0 °F /  -10.6 °C 1028.7 in /  34831.8 hPa WSW 13.0 mph /  20.9 km/h 13.0 mph /  20.9 km/h 76 % 0.0 in /  0 mm
14:55 17.2 °F /  -8.2 °C 12.9 °F /  -10.6 °C 1028.7 in /  34831.8 hPa WSW 14.8 mph /  23.8 km/h 14.8 mph /  23.8 km/h 76 % 0.0 in /  0 mm
14:56 17.2 °F /  -8.2 °C 13.1 °F /  -10.5 °C 1028.7 in /  34831.8 hPa SW 13.0 mph /  20.9 km/h 13.0 mph /  20.9 km/h 77 % 0.0 in /  0 mm
15:01 17.1 °F /  -8.3 °C 13.1 °F /  -10.5 °C 1028.7 in /  34831.8 hPa SW 13.0 mph /  20.9 km/h 13.0 mph /  20.9 km/h 77 % 0.0 in /  0 mm
15:02 17.1 °F /  -8.3 °C 13.2 °F /  -10.4 °C 1028.7 in /  34831.8 hPa SW 13.0 mph /  20.9 km/h 13.0 mph /  20.9 km/h 78 % 0.0 in /  0 mm
15:03 17.2 °F /  -8.2 °C 13.3 °F /  -10.4 °C 1028.7 in /  34831.8 hPa SW 9.3 mph /  15 km/h 9.3 mph /  15 km/h 78 % 0.0 in /  0 mm
15:07 17.3 °F /  -8.2 °C 13.6 °F /  -10.2 °C 1028.7 in /  34831.8 hPa SW 5.6 mph /  9 km/h 5.6 mph /  9 km/h 79 % 0.0 in /  0 mm
15:09 17.3 °F /  -8.2 °C 13.8 °F /  -10.1 °C 1028.7 in /  34831.8 hPa SW 5.6 mph /  9 km/h 5.6 mph /  9 km/h 80 % 0.0 in /  0 mm
15:14 17.5 °F /  -8.1 °C 14.0 °F /  -10 °C 1028.7 in /  34831.8 hPa SW 8.0 mph /  12.9 km/h 8.0 mph /  12.9 km/h 80 % 0.0 in /  0 mm
15:19 17.5 °F /  -8.1 °C 14.0 °F /  -10 °C 1028.7 in /  34831.8 hPa SW 9.7 mph /  15.6 km/h 9.7 mph /  15.6 km/h 80 % 0.0 in /  0 mm
15:24 17.4 °F /  -8.1 °C 13.9 °F /  -10.1 °C 1028.7 in /  34831.8 hPa SW 9.3 mph /  15 km/h 9.3 mph /  15 km/h 80 % 0.0 in /  0 mm
15:25 17.4 °F /  -8.1 °C 13.9 °F /  -10.1 °C 1028.7 in /  34831.8 hPa SW 7.4 mph /  11.9 km/h 7.4 mph /  11.9 km/h 80 % 0.0 in /  0 mm
15:30 17.4 °F /  -8.1 °C 14.2 °F /  -9.9 °C 1028.7 in /  34831.8 hPa SW 9.3 mph /  15 km/h 9.3 mph /  15 km/h 81 % 0.0 in /  0 mm
15:35 17.4 °F /  -8.1 °C 14.2 °F /  -9.9 °C 1028.7 in /  34831.8 hPa SW 7.4 mph /  11.9 km/h 7.4 mph /  11.9 km/h 81 % 0.0 in /  0 mm
15:36 17.4 °F /  -8.1 °C 14.2 °F /  -9.9 °C 1028.7 in /  34831.8 hPa SW 7.4 mph /  11.9 km/h 7.4 mph /  11.9 km/h 81 % 0.0 in /  0 mm
15:39 17.4 °F /  -8.1 °C 14.1 °F /  -9.9 °C 1028.3 in /  34818.2 hPa SW 9.3 mph /  15 km/h 9.3 mph /  15 km/h 81 % 0.0 in /  0 mm
15:43 17.3 °F /  -8.2 °C 14.1 °F /  -9.9 °C 1028.3 in /  34818.2 hPa SW 8.0 mph /  12.9 km/h 8.0 mph /  12.9 km/h 81 % 0.0 in /  0 mm
15:47 17.3 °F /  -8.2 °C 14.1 °F /  -9.9 °C 1028.3 in /  34818.2 hPa SW 6.4 mph /  10.3 km/h 6.4 mph /  10.3 km/h 81 % 0.0 in /  0 mm
15:50 17.3 °F /  -8.2 °C 14.2 °F /  -9.9 °C 1028.3 in /  34818.2 hPa SW 6.4 mph /  10.3 km/h 6.4 mph /  10.3 km/h 82 % 0.0 in /  0 mm
15:55 17.4 °F /  -8.1 °C 14.3 °F /  -9.8 °C 1028.3 in /  34818.2 hPa SW 3.7 mph /  6 km/h 3.7 mph /  6 km/h 82 % 0.0 in /  0 mm
15:56 17.3 °F /  -8.2 °C 14.2 °F /  -9.9 °C 1028.3 in /  34818.2 hPa SW 5.6 mph /  9 km/h 5.6 mph /  9 km/h 82 % 0.0 in /  0 mm
16:01 17.2 °F /  -8.2 °C 14.3 °F /  -9.8 °C 1028.3 in /  34818.2 hPa SW 1.9 mph /  3.1 km/h 1.9 mph /  3.1 km/h 83 % 0.0 in /  0 mm
16:06 17.3 °F /  -8.2 °C 14.4 °F /  -9.8 °C 1028.3 in /  34818.2 hPa SW 5.6 mph /  9 km/h 5.6 mph /  9 km/h 83 % 0.0 in /  0 mm
16:08 17.2 °F /  -8.2 °C 14.1 °F /  -9.9 °C 1028.3 in /  34818.2 hPa SW 5.6 mph /  9 km/h 5.6 mph /  9 km/h 82 % 0.0 in /  0 mm
16:13 17.0 °F /  -8.3 °C 14.1 °F /  -9.9 °C 1028.3 in /  34818.2 hPa SW 3.7 mph /  6 km/h 3.7 mph /  6 km/h 83 % 0.0 in /  0 mm
16:16 17.1 °F /  -8.3 °C 14.2 °F /  -9.9 °C 1028.3 in /  34818.2 hPa SW 3.7 mph /  6 km/h 3.7 mph /  6 km/h 83 % 0.0 in /  0 mm
16:24 16.9 °F /  -8.4 °C 14.1 °F /  -9.9 °C 1028.3 in /  34818.2 hPa South 6.4 mph /  10.3 km/h 6.4 mph /  10.3 km/h 83 % 0.0 in /  0 mm
16:30 16.5 °F /  -8.6 °C 13.6 °F /  -10.2 °C 1028.3 in /  34818.2 hPa SE 5.6 mph /  9 km/h 5.6 mph /  9 km/h 83 % 0.0 in /  0 mm
16:32 16.4 °F /  -8.7 °C 13.7 °F /  -10.2 °C 1028.3 in /  34818.2 hPa SE 5.6 mph /  9 km/h 5.6 mph /  9 km/h 84 % 0.0 in /  0 mm
16:37 16.7 °F /  -8.5 °C 13.9 °F /  -10.1 °C 1028.3 in /  34818.2 hPa SE 1.9 mph /  3.1 km/h 1.9 mph /  3.1 km/h 84 % 0.0 in /  0 mm
16:38 16.7 °F /  -8.5 °C 13.9 °F /  -10.1 °C 1028.3 in /  34818.2 hPa SE 1.9 mph /  3.1 km/h 1.9 mph /  3.1 km/h 84 % 0.0 in /  0 mm
16:43 16.8 °F /  -8.4 °C 14.1 °F /  -9.9 °C 1028.0 in /  34808.1 hPa SE 3.7 mph /  6 km/h 3.7 mph /  6 km/h 84 % 0.0 in /  0 mm
16:47 16.9 °F /  -8.4 °C 14.2 °F /  -9.9 °C 1028.3 in /  34818.2 hPa SE 5.6 mph /  9 km/h 5.6 mph /  9 km/h 84 % 0.0 in /  0 mm
16:49 17.0 °F /  -8.3 °C 14.1 °F /  -9.9 °C 1028.3 in /  34818.2 hPa SE 3.7 mph /  6 km/h 3.7 mph /  6 km/h 83 % 0.0 in /  0 mm
16:51 17.1 °F /  -8.3 °C 14.2 °F /  -9.9 °C 1028.3 in /  34818.2 hPa SE 3.7 mph /  6 km/h 3.7 mph /  6 km/h 83 % 0.0 in /  0 mm
16:56 17.2 °F /  -8.2 °C 14.3 °F /  -9.8 °C 1028.3 in /  34818.2 hPa SE 5.6 mph /  9 km/h 5.6 mph /  9 km/h 83 % 0.0 in /  0 mm
17:00 17.2 °F /  -8.2 °C 14.1 °F /  -9.9 °C 1028.0 in /  34808.1 hPa SE 3.7 mph /  6 km/h 3.7 mph /  6 km/h 82 % 0.0 in /  0 mm
17:05 17.1 °F /  -8.3 °C 13.9 °F /  -10.1 °C 1028.0 in /  34808.1 hPa ESE 5.6 mph /  9 km/h 5.6 mph /  9 km/h 82 % 0.0 in /  0 mm
17:06 16.9 °F /  -8.4 °C 13.8 °F /  -10.1 °C 1028.0 in /  34808.1 hPa ESE 3.7 mph /  6 km/h 3.7 mph /  6 km/h 82 % 0.0 in /  0 mm
17:10 16.7 °F /  -8.5 °C 13.8 °F /  -10.1 °C 1028.0 in /  34808.1 hPa ESE 5.6 mph /  9 km/h 5.6 mph /  9 km/h 83 % 0.0 in /  0 mm
17:12 16.7 °F /  -8.5 °C 13.8 °F /  -10.1 °C 1028.0 in /  34808.1 hPa East 5.6 mph /  9 km/h 5.6 mph /  9 km/h 83 % 0.0 in /  0 mm
17:16 16.4 °F /  -8.7 °C 13.7 °F /  -10.2 °C 1028.0 in /  34808.1 hPa East 7.4 mph /  11.9 km/h 7.4 mph /  11.9 km/h 84 % 0.0 in /  0 mm
17:21 16.3 °F /  -8.7 °C 13.8 °F /  -10.1 °C 1028.0 in /  34808.1 hPa East 7.4 mph /  11.9 km/h 7.4 mph /  11.9 km/h 85 % 0.0 in /  0 mm
17:24 16.2 °F /  -8.8 °C 13.7 °F /  -10.2 °C 1028.0 in /  34808.1 hPa East 7.4 mph /  11.9 km/h 7.4 mph /  11.9 km/h 85 % 0.0 in /  0 mm
17:27 16.2 °F /  -8.8 °C 13.8 °F /  -10.1 °C 1028.0 in /  34808.1 hPa East 5.6 mph /  9 km/h 5.6 mph /  9 km/h 86 % 0.0 in /  0 mm
17:30 16.1 °F /  -8.8 °C 13.8 °F /  -10.1 °C 1028.0 in /  34808.1 hPa East 3.7 mph /  6 km/h 3.7 mph /  6 km/h 86 % 0.0 in /  0 mm
17:32 16.1 °F /  -8.8 °C 13.7 °F /  -10.2 °C 1028.0 in /  34808.1 hPa East 1.9 mph /  3.1 km/h   86 % 0.0 in /  0 mm
17:37 16.1 °F /  -8.8 °C 13.9 °F /  -10.1 °C 1028.0 in /  34808.1 hPa Calm     87 % 0.0 in /  0 mm
17:38 16.1 °F /  -8.8 °C 13.9 °F /  -10.1 °C 1028.0 in /  34808.1 hPa Calm     87 % 0.0 in /  0 mm
17:43 16.0 °F /  -8.9 °C 13.8 °F /  -10.1 °C 1028.0 in /  34808.1 hPa East 3.7 mph /  6 km/h 3.7 mph /  6 km/h 87 % 0.0 in /  0 mm
17:45 16.0 °F /  -8.9 °C 13.8 °F /  -10.1 °C 1028.0 in /  34808.1 hPa East 5.6 mph /  9 km/h 5.6 mph /  9 km/h 87 % 0.0 in /  0 mm
17:48 15.9 °F /  -8.9 °C 13.8 °F /  -10.1 °C 1028.0 in /  34808.1 hPa East 5.6 mph /  9 km/h 5.6 mph /  9 km/h 87 % 0.0 in /  0 mm
17:53 15.8 °F /  -9 °C 13.7 °F /  -10.2 °C 1028.3 in /  34818.2 hPa ENE 5.6 mph /  9 km/h 5.6 mph /  9 km/h 87 % 0.0 in /  0 mm
17:58 15.8 °F /  -9 °C 13.8 °F /  -10.1 °C 1028.0 in /  34808.1 hPa ENE 5.6 mph /  9 km/h 5.6 mph /  9 km/h 88 % 0.0 in /  0 mm
18:02 15.8 °F /  -9 °C 13.8 °F /  -10.1 °C 1028.0 in /  34808.1 hPa East 7.4 mph /  11.9 km/h 7.4 mph /  11.9 km/h 88 % 0.0 in /  0 mm
18:05 15.7 °F /  -9.1 °C 13.7 °F /  -10.2 °C 1028.0 in /  34808.1 hPa ENE 4.8 mph /  7.7 km/h 8.0 mph /  12.9 km/h 88 % 0.0 in /  0 mm
18:08 15.7 °F /  -9.1 °C 13.7 °F /  -10.2 °C 1028.0 in /  34808.1 hPa ENE 5.6 mph /  9 km/h 5.6 mph /  9 km/h 88 % 0.0 in /  0 mm
18:10 15.7 °F /  -9.1 °C 13.7 °F /  -10.2 °C 1028.3 in /  34818.2 hPa ENE 5.6 mph /  9 km/h 5.6 mph /  9 km/h 88 % 0.0 in /  0 mm
18:14 15.6 °F /  -9.1 °C 13.8 °F /  -10.1 °C 1028.0 in /  34808.1 hPa NE 6.4 mph /  10.3 km/h 6.4 mph /  10.3 km/h 89 % 0.0 in /  0 mm
18:15 15.6 °F /  -9.1 °C 13.6 °F /  -10.2 °C 1028.0 in /  34808.1 hPa NE 5.6 mph /  9 km/h 5.6 mph /  9 km/h 88 % 0.0 in /  0 mm
18:20 15.6 °F /  -9.1 °C 13.7 °F /  -10.2 °C 1028.0 in /  34808.1 hPa NE 4.8 mph /  7.7 km/h 4.8 mph /  7.7 km/h 89 % 0.0 in /  0 mm
18:22 15.6 °F /  -9.1 °C 13.7 °F /  -10.2 °C 1028.0 in /  34808.1 hPa NE 5.6 mph /  9 km/h 5.6 mph /  9 km/h 89 % 0.0 in /  0 mm
18:24 15.6 °F /  -9.1 °C 13.7 °F /  -10.2 °C 1028.0 in /  34808.1 hPa NE 5.6 mph /  9 km/h 5.6 mph /  9 km/h 89 % 0.0 in /  0 mm
18:29 15.6 °F /  -9.1 °C 13.7 °F /  -10.2 °C 1028.0 in /  34808.1 hPa NE 5.6 mph /  9 km/h 5.6 mph /  9 km/h 89 % 0.0 in /  0 mm
18:34 15.6 °F /  -9.1 °C 13.7 °F /  -10.2 °C 1028.0 in /  34808.1 hPa ENE 5.6 mph /  9 km/h 5.6 mph /  9 km/h 89 % 0.0 in /  0 mm
18:35 15.6 °F /  -9.1 °C 13.7 °F /  -10.2 °C 1028.0 in /  34808.1 hPa ENE 5.6 mph /  9 km/h 5.6 mph /  9 km/h 89 % 0.0 in /  0 mm
18:38 15.6 °F /  -9.1 °C 13.7 °F /  -10.2 °C 1028.0 in /  34808.1 hPa East 7.4 mph /  11.9 km/h 7.4 mph /  11.9 km/h 89 % 0.0 in /  0 mm
18:40 15.6 °F /  -9.1 °C 13.7 °F /  -10.2 °C 1028.0 in /  34808.1 hPa East 3.7 mph /  6 km/h 3.7 mph /  6 km/h 89 % 0.0 in /  0 mm
18:45 15.5 °F /  -9.2 °C 13.7 °F /  -10.2 °C 1028.0 in /  34808.1 hPa East 5.6 mph /  9 km/h 5.6 mph /  9 km/h 89 % 0.0 in /  0 mm
18:46 15.5 °F /  -9.2 °C 13.7 °F /  -10.2 °C 1028.0 in /  34808.1 hPa East 5.6 mph /  9 km/h 5.6 mph /  9 km/h 89 % 0.0 in /  0 mm
18:49 15.4 °F /  -9.2 °C 13.7 °F /  -10.2 °C 1028.0 in /  34808.1 hPa ENE 7.4 mph /  11.9 km/h 7.4 mph /  11.9 km/h 89 % 0.0 in /  0 mm
18:53 15.4 °F /  -9.2 °C 13.7 °F /  -10.2 °C 1028.0 in /  34808.1 hPa NE 6.4 mph /  10.3 km/h 6.4 mph /  10.3 km/h 89 % 0.0 in /  0 mm
18:54 15.4 °F /  -9.2 °C 13.7 °F /  -10.2 °C 1028.0 in /  34808.1 hPa NE 6.4 mph /  10.3 km/h 6.4 mph /  10.3 km/h 89 % 0.0 in /  0 mm
18:59 15.4 °F /  -9.2 °C 13.6 °F /  -10.2 °C 1028.0 in /  34808.1 hPa Calm     89 % 0.0 in /  0 mm
19:00 15.4 °F /  -9.2 °C 13.6 °F /  -10.2 °C 1028.0 in /  34808.1 hPa Calm     89 % 0.0 in /  0 mm
19:05 15.4 °F /  -9.2 °C 13.6 °F /  -10.2 °C 1028.0 in /  34808.1 hPa Calm     89 % 0.0 in /  0 mm
19:06 15.4 °F /  -9.2 °C 13.6 °F /  -10.2 °C 1028.0 in /  34808.1 hPa Calm     89 % 0.0 in /  0 mm
19:11 15.4 °F /  -9.2 °C 13.8 °F /  -10.1 °C 1028.0 in /  34808.1 hPa Calm     90 % 0.0 in /  0 mm
19:15 15.4 °F /  -9.2 °C 13.8 °F /  -10.1 °C 1028.0 in /  34808.1 hPa Calm     90 % 0.0 in /  0 mm
19:19 15.4 °F /  -9.2 °C 13.8 °F /  -10.1 °C 1028.0 in /  34808.1 hPa Calm     90 % 0.0 in /  0 mm
19:24 15.4 °F /  -9.2 °C 13.8 °F /  -10.1 °C 1028.0 in /  34808.1 hPa Calm     90 % 0.0 in /  0 mm
19:29 15.4 °F /  -9.2 °C 13.8 °F /  -10.1 °C 1028.0 in /  34808.1 hPa Calm     90 % 0.0 in /  0 mm
19:30 15.4 °F /  -9.2 °C 13.8 °F /  -10.1 °C 1028.0 in /  34808.1 hPa Calm     90 % 0.0 in /  0 mm
19:32 15.4 °F /  -9.2 °C 13.8 °F /  -10.1 °C 1028.0 in /  34808.1 hPa Calm     90 % 0.0 in /  0 mm
19:35 15.4 °F /  -9.2 °C 13.8 °F /  -10.1 °C 1028.0 in /  34808.1 hPa Calm     90 % 0.0 in /  0 mm
19:39 15.4 °F /  -9.2 °C 13.8 °F /  -10.1 °C 1028.0 in /  34808.1 hPa Calm     90 % 0.0 in /  0 mm
19:44 15.3 °F /  -9.3 °C 13.7 °F /  -10.2 °C 1028.0 in /  34808.1 hPa Calm     90 % 0.0 in /  0 mm
19:47 15.3 °F /  -9.3 °C 13.7 °F /  -10.2 °C 1028.0 in /  34808.1 hPa Calm     90 % 0.0 in /  0 mm
19:52 15.2 °F /  -9.3 °C 13.6 °F /  -10.2 °C 1028.0 in /  34808.1 hPa Calm     90 % 0.0 in /  0 mm
19:55 15.1 °F /  -9.4 °C 13.5 °F /  -10.3 °C 1028.0 in /  34808.1 hPa Calm     90 % 0.0 in /  0 mm
19:57 15.1 °F /  -9.4 °C 13.4 °F /  -10.3 °C 1028.0 in /  34808.1 hPa Calm     90 % 0.0 in /  0 mm
20:02 14.9 °F /  -9.5 °C 13.3 °F /  -10.4 °C 1028.0 in /  34808.1 hPa NE 3.7 mph /  6 km/h 3.7 mph /  6 km/h 90 % 0.0 in /  0 mm
20:03 14.9 °F /  -9.5 °C 13.3 °F /  -10.4 °C 1028.0 in /  34808.1 hPa NE 3.7 mph /  6 km/h 3.7 mph /  6 km/h 90 % 0.0 in /  0 mm
20:08 15.0 °F /  -9.4 °C 13.4 °F /  -10.3 °C 1028.3 in /  34818.2 hPa Calm     90 % 0.0 in /  0 mm
20:15 15.1 °F /  -9.4 °C 13.4 °F /  -10.3 °C 1028.0 in /  34808.1 hPa Calm     90 % 0.0 in /  0 mm
20:19 15.1 °F /  -9.4 °C 13.4 °F /  -10.3 °C 1028.3 in /  34818.2 hPa Calm     90 % 0.0 in /  0 mm
20:24 14.9 °F /  -9.5 °C 13.2 °F /  -10.4 °C 1028.3 in /  34818.2 hPa NNE 6.4 mph /  10.3 km/h 6.4 mph /  10.3 km/h 89 % 0.0 in /  0 mm
20:29 14.7 °F /  -9.6 °C 12.9 °F /  -10.6 °C 1028.3 in /  34818.2 hPa North 8.0 mph /  12.9 km/h 8.0 mph /  12.9 km/h 89 % 0.0 in /  0 mm
20:30 14.7 °F /  -9.6 °C 12.9 °F /  -10.6 °C 1028.3 in /  34818.2 hPa North 8.0 mph /  12.9 km/h 8.0 mph /  12.9 km/h 89 % 0.0 in /  0 mm
20:35 14.3 °F /  -9.8 °C 12.6 °F /  -10.8 °C 1028.3 in /  34818.2 hPa North 8.0 mph /  12.9 km/h 8.0 mph /  12.9 km/h 89 % 0.0 in /  0 mm
20:41 14.2 °F /  -9.9 °C 12.4 °F /  -10.9 °C 1028.3 in /  34818.2 hPa North 9.3 mph /  15 km/h 9.3 mph /  15 km/h 89 % 0.0 in /  0 mm
20:43 14.1 °F /  -9.9 °C 12.3 °F /  -10.9 °C 1028.3 in /  34818.2 hPa North 7.4 mph /  11.9 km/h 7.4 mph /  11.9 km/h 89 % 0.0 in /  0 mm
20:47 14.1 °F /  -9.9 °C 12.3 °F /  -10.9 °C 1028.3 in /  34818.2 hPa North 7.4 mph /  11.9 km/h 7.4 mph /  11.9 km/h 89 % 0.0 in /  0 mm
20:49 14.1 °F /  -9.9 °C 12.3 °F /  -10.9 °C 1028.3 in /  34818.2 hPa NNW 5.6 mph /  9 km/h 5.6 mph /  9 km/h 89 % 0.0 in /  0 mm
20:55 14.3 °F /  -9.8 °C 12.5 °F /  -10.8 °C 1028.3 in /  34818.2 hPa NNW 5.6 mph /  9 km/h 5.6 mph /  9 km/h 89 % 0.0 in /  0 mm
20:58 14.4 °F /  -9.8 °C 12.6 °F /  -10.8 °C 1028.3 in /  34818.2 hPa NNW 5.6 mph /  9 km/h 5.6 mph /  9 km/h 89 % 0.0 in /  0 mm
21:01 14.6 °F /  -9.7 °C 12.8 °F /  -10.7 °C 1028.3 in /  34818.2 hPa North 5.6 mph /  9 km/h 5.8 mph /  9.3 km/h 89 % 0.0 in /  0 mm
21:06 14.6 °F /  -9.7 °C 12.8 °F /  -10.7 °C 1028.3 in /  34818.2 hPa North 5.6 mph /  9 km/h 5.6 mph /  9 km/h 89 % 0.0 in /  0 mm
21:11 14.8 °F /  -9.6 °C 13.1 °F /  -10.5 °C 1028.3 in /  34818.2 hPa Calm     89 % 0.0 in /  0 mm
21:16 15.1 °F /  -9.4 °C 13.1 °F /  -10.5 °C 1028.3 in /  34818.2 hPa Calm     88 % 0.0 in /  0 mm
21:21 15.1 °F /  -9.4 °C 12.9 °F /  -10.6 °C 1028.3 in /  34818.2 hPa North 5.6 mph /  9 km/h 6.1 mph /  9.8 km/h 87 % 0.0 in /  0 mm
21:26 15.3 °F /  -9.3 °C 13.1 °F /  -10.5 °C 1028.3 in /  34818.2 hPa NNW 5.6 mph /  9 km/h 5.6 mph /  9 km/h 87 % 0.0 in /  0 mm
21:31 15.5 °F /  -9.2 °C 13.3 °F /  -10.4 °C 1028.3 in /  34818.2 hPa Calm     87 % 0.0 in /  0 mm
21:36 15.7 °F /  -9.1 °C 13.2 °F /  -10.4 °C 1028.3 in /  34818.2 hPa Calm     85 % 0.0 in /  0 mm
21:42 15.8 °F /  -9 °C 12.9 °F /  -10.6 °C 1028.3 in /  34818.2 hPa Calm     83 % 0.0 in /  0 mm
21:47 15.7 °F /  -9.1 °C 12.7 °F /  -10.7 °C 1028.3 in /  34818.2 hPa NNW 8.0 mph /  12.9 km/h 8.0 mph /  12.9 km/h 82 % 0.0 in /  0 mm
21:52 15.7 °F /  -9.1 °C 12.4 °F /  -10.9 °C 1028.3 in /  34818.2 hPa NNW 7.4 mph /  11.9 km/h 7.4 mph /  11.9 km/h 81 % 0.0 in /  0 mm
21:53 15.7 °F /  -9.1 °C 12.4 °F /  -10.9 °C 1028.3 in /  34818.2 hPa NNW 5.6 mph /  9 km/h 5.6 mph /  9 km/h 81 % 0.0 in /  0 mm
21:57 15.6 °F /  -9.1 °C 12.3 °F /  -10.9 °C 1028.3 in /  34818.2 hPa NNW 5.6 mph /  9 km/h 5.6 mph /  9 km/h 81 % 0.0 in /  0 mm
22:01 15.6 °F /  -9.1 °C 12.1 °F /  -11.1 °C 1028.3 in /  34818.2 hPa NNW 6.4 mph /  10.3 km/h 6.4 mph /  10.3 km/h 80 % 0.0 in /  0 mm
22:02 15.5 °F /  -9.2 °C 12.1 °F /  -11.1 °C 1028.3 in /  34818.2 hPa NW 6.4 mph /  10.3 km/h 6.4 mph /  10.3 km/h 80 % 0.0 in /  0 mm
22:06 15.4 °F /  -9.2 °C 11.8 °F /  -11.2 °C 1028.3 in /  34818.2 hPa NW 5.6 mph /  9 km/h 5.6 mph /  9 km/h 79 % 0.0 in /  0 mm
22:10 15.3 °F /  -9.3 °C 11.7 °F /  -11.3 °C 1028.3 in /  34818.2 hPa NW 5.6 mph /  9 km/h 5.6 mph /  9 km/h 79 % 0.0 in /  0 mm
22:11 15.2 °F /  -9.3 °C 11.4 °F /  -11.4 °C 1028.3 in /  34818.2 hPa NW 5.6 mph /  9 km/h 5.6 mph /  9 km/h 78 % 0.0 in /  0 mm
22:14 15.2 °F /  -9.3 °C 11.3 °F /  -11.5 °C 1028.3 in /  34818.2 hPa NW 5.6 mph /  9 km/h 5.6 mph /  9 km/h 78 % 0.0 in /  0 mm
22:19 15.2 °F /  -9.3 °C 11.2 °F /  -11.6 °C 1028.3 in /  34818.2 hPa NW 5.6 mph /  9 km/h 5.6 mph /  9 km/h 77 % 0.0 in /  0 mm
22:21 15.2 °F /  -9.3 °C 11.0 °F /  -11.7 °C 1028.3 in /  34818.2 hPa NW 5.6 mph /  9 km/h 5.6 mph /  9 km/h 76 % 0.0 in /  0 mm
22:26 15.3 °F /  -9.3 °C 11.1 °F /  -11.6 °C 1028.3 in /  34818.2 hPa NW 3.7 mph /  6 km/h 3.7 mph /  6 km/h 76 % 0.0 in /  0 mm
22:31 15.2 °F /  -9.3 °C 10.8 °F /  -11.8 °C 1028.3 in /  34818.2 hPa Calm     75 % 0.0 in /  0 mm
22:33 15.3 °F /  -9.3 °C 10.9 °F /  -11.7 °C 1028.3 in /  34818.2 hPa NW 5.6 mph /  9 km/h 5.6 mph /  9 km/h 75 % 0.0 in /  0 mm
22:36 15.2 °F /  -9.3 °C 10.8 °F /  -11.8 °C 1028.3 in /  34818.2 hPa NW 3.7 mph /  6 km/h 3.7 mph /  6 km/h 75 % 0.0 in /  0 mm
22:42 15.1 °F /  -9.4 °C 10.4 °F /  -12 °C 1028.3 in /  34818.2 hPa NW 7.4 mph /  11.9 km/h 7.4 mph /  11.9 km/h 74 % 0.0 in /  0 mm
22:47 15.3 °F /  -9.3 °C 10.3 °F /  -12.1 °C 1028.3 in /  34818.2 hPa NNW 8.0 mph /  12.9 km/h 8.0 mph /  12.9 km/h 72 % 0.0 in /  0 mm
22:54 15.3 °F /  -9.3 °C 9.9 °F /  -12.3 °C 1028.3 in /  34818.2 hPa North 6.4 mph /  10.3 km/h 6.4 mph /  10.3 km/h 70 % 0.0 in /  0 mm
22:59 15.4 °F /  -9.2 °C 10.0 °F /  -12.2 °C 1028.3 in /  34818.2 hPa North 8.0 mph /  12.9 km/h 8.0 mph /  12.9 km/h 70 % 0.0 in /  0 mm
23:01 15.5 °F /  -9.2 °C 9.8 °F /  -12.3 °C 1028.3 in /  34818.2 hPa North 11.1 mph /  17.9 km/h 11.1 mph /  17.9 km/h 69 % 0.0 in /  0 mm
23:06 15.4 °F /  -9.2 °C 9.8 °F /  -12.3 °C 1028.3 in /  34818.2 hPa North 11.1 mph /  17.9 km/h 11.1 mph /  17.9 km/h 69 % 0.0 in /  0 mm
23:08 15.4 °F /  -9.2 °C 9.8 °F /  -12.3 °C 1028.3 in /  34818.2 hPa North 9.3 mph /  15 km/h 9.3 mph /  15 km/h 69 % 0.0 in /  0 mm
23:13 15.4 °F /  -9.2 °C 9.8 °F /  -12.3 °C 1028.3 in /  34818.2 hPa North 9.3 mph /  15 km/h 9.3 mph /  15 km/h 69 % 0.0 in /  0 mm
23:18 15.5 °F /  -9.2 °C 9.8 °F /  -12.3 °C 1028.3 in /  34818.2 hPa North 11.1 mph /  17.9 km/h 11.1 mph /  17.9 km/h 69 % 0.0 in /  0 mm
23:20 15.6 °F /  -9.1 °C 9.9 °F /  -12.3 °C 1028.3 in /  34818.2 hPa North 11.1 mph /  17.9 km/h 11.1 mph /  17.9 km/h 69 % 0.0 in /  0 mm
23:23 15.7 °F /  -9.1 °C 10.1 °F /  -12.2 °C 1028.3 in /  34818.2 hPa North 11.1 mph /  17.9 km/h 11.1 mph /  17.9 km/h 69 % 0.0 in /  0 mm
23:29 15.8 °F /  -9 °C 9.9 °F /  -12.3 °C 1028.3 in /  34818.2 hPa North 11.3 mph /  18.2 km/h 11.3 mph /  18.2 km/h 68 % 0.0 in /  0 mm
23:32 15.9 °F /  -8.9 °C 10.1 °F /  -12.2 °C 1028.3 in /  34818.2 hPa North 11.3 mph /  18.2 km/h 11.3 mph /  18.2 km/h 68 % 0.0 in /  0 mm
23:36 16.0 °F /  -8.9 °C 9.9 °F /  -12.3 °C 1028.7 in /  34831.8 hPa North 9.3 mph /  15 km/h 9.3 mph /  15 km/h 67 % 0.0 in /  0 mm
23:37 16.0 °F /  -8.9 °C 9.9 °F /  -12.3 °C 1028.3 in /  34818.2 hPa NNW 8.0 mph /  12.9 km/h 8.0 mph /  12.9 km/h 67 % 0.0 in /  0 mm
23:42 16.1 °F /  -8.8 °C 9.9 °F /  -12.3 °C 1028.3 in /  34818.2 hPa North 13.0 mph /  20.9 km/h 13.0 mph /  20.9 km/h 67 % 0.0 in /  0 mm
23:46 16.1 °F /  -8.8 °C 9.9 °F /  -12.3 °C 1028.3 in /  34818.2 hPa NNW 9.7 mph /  15.6 km/h 9.7 mph /  15.6 km/h 67 % 0.0 in /  0 mm
23:48 16.0 °F /  -8.9 °C 9.9 °F /  -12.3 °C 1028.3 in /  34818.2 hPa NNW 7.4 mph /  11.9 km/h 7.4 mph /  11.9 km/h 67 % 0.0 in /  0 mm
23:53 16.1 °F /  -8.8 °C 9.9 °F /  -12.3 °C 1028.3 in /  34818.2 hPa NNW 5.6 mph /  9 km/h 5.6 mph /  9 km/h 67 % 0.0 in /  0 mm
23:57 16.0 °F /  -8.9 °C 9.9 °F /  -12.3 °C 1028.7 in /  34831.8 hPa North 5.6 mph /  9 km/h 5.6 mph /  9 km/h 67 % 0.0 in /  0 mm
23:58 15.9 °F /  -8.9 °C 9.8 °F /  -12.3 °C 1028.7 in /  34831.8 hPa North 3.7 mph /  6 km/h 3.7 mph /  6 km/h 67 % 0.0 in /  0 mm
Puerto Banus, Marbella
Elogios de Weather Underground - 2.75 mb

Guión original por  Jim McMurry - jmcmurry@mwt.net Adaptado para la plantilla por  Wim van der Kuil - Leuven-Template.eu

Usted encontrará nuestra información del tiempo también en:

Weather Underground

Iberian Peninsula Weather Network